Time;durP1;ratioP1;P1;durP2;ratioP2;P2;SDS_P1;SDS_P2;PMS_P1;PMS_P2;Temp;Humidity;BMP_temperature;BMP_pressure;BME280_temperature;BME280_humidity;BME280_pressure;Samples;Min_cycle;Max_cycle;Signal;HPM_P1;HPM_P2
2023/06/18 00:00:53;;;;;;;18.27;11.20;;;;;;;;;;4946239;28;20019;-63
2023/06/18 00:03:18;;;;;;;15.13;10.98;;;;;;;;;;4951363;28;20602;-61
2023/06/18 00:05:43;;;;;;;19.70;12.87;;;;;;;;;;4947793;28;20034;-62
2023/06/18 00:08:09;;;;;;;14.75;9.57;;;;;;;;;;4947685;28;20038;-61
2023/06/18 00:10:34;;;;;;;17.60;11.02;;;;;;;;;;4951980;28;20037;-61
2023/06/18 00:12:59;;;;;;;18.20;9.82;;;;;;;;;;4944283;28;20391;-61
2023/06/18 00:15:24;;;;;;;15.13;10.02;;;;;;;;;;4936988;28;20046;-62
2023/06/18 00:17:50;;;;;;;12.98;9.02;;;;;;;;;;4931999;28;20027;-62
2023/06/18 00:20:15;;;;;;;13.13;9.15;;;;;;;;;;4933525;29;20024;-62
2023/06/18 00:22:41;;;;;;;12.88;8.95;;;;;;;;;;4940230;29;20031;-60
2023/06/18 00:25:07;;;;;;;15.48;10.02;;;;;;;;;;4938887;28;20035;-62
2023/06/18 00:27:32;;;;;;;12.90;8.80;;;;;;;;;;4933703;29;20020;-63
2023/06/18 00:29:57;;;;;;;12.77;9.03;;;;;;;;;;4945368;29;20030;-61
2023/06/18 00:32:22;;;;;;;13.25;9.07;;;;;;;;;;4942494;29;20023;-61
2023/06/18 00:34:48;;;;;;;12.33;8.63;;;;;;;;;;4943358;28;20023;-60
2023/06/18 00:37:13;;;;;;;13.18;9.00;;;;;;;;;;4952724;28;20447;-62
2023/06/18 00:39:38;;;;;;;14.55;9.30;;;;;;;;;;4952078;28;20011;-63
2023/06/18 00:42:05;;;;;;;13.13;9.17;;;;;;;;;;4949289;28;20139;-62
2023/06/18 00:44:31;;;;;;;11.55;8.38;;;;;;;;;;4953990;28;20121;-62
2023/06/18 00:46:59;;;;;;;12.68;8.98;;;;;;;;;;4954412;28;20058;-61
2023/06/18 00:49:25;;;;;;;11.32;7.95;;;;;;;;;;4946879;28;20078;-63
2023/06/18 00:51:52;;;;;;;12.93;8.48;;;;;;;;;;4949206;28;20023;-63
2023/06/18 00:54:18;;;;;;;11.50;7.78;;;;;;;;;;4951678;28;20105;-63
2023/06/18 00:56:52;;;;;;;13.23;8.13;;;;;;;;;;4943206;28;20499;-61
2023/06/18 00:59:22;;;;;;;11.60;7.22;;;;;;;;;;4935041;28;20032;-62
2023/06/18 01:01:54;;;;;;;12.27;8.80;;;;;;;;;;4948704;28;20105;-62
2023/06/18 01:04:26;;;;;;;11.27;8.18;;;;;;;;;;4939895;28;20031;-61
2023/06/18 01:06:52;;;;;;;11.73;7.88;;;;;;;;;;4942733;28;20023;-62
2023/06/18 01:09:20;;;;;;;10.65;7.25;;;;;;;;;;4946223;28;20451;-62
2023/06/18 01:11:45;;;;;;;12.30;8.63;;;;;;;;;;4939889;28;20031;-62
2023/06/18 01:14:10;;;;;;;11.17;7.53;;;;;;;;;;4937594;28;20020;-62
2023/06/18 01:16:45;;;;;;;12.30;8.53;;;;;;;;;;4940478;28;20107;-62
2023/06/18 01:19:15;;;;;;;15.13;8.30;;;;;;;;;;4947445;28;20505;-61
2023/06/18 01:21:42;;;;;;;13.68;8.27;;;;;;;;;;4949878;28;20094;-62
2023/06/18 01:24:12;;;;;;;13.75;8.13;;;;;;;;;;4947659;28;20110;-61
2023/06/18 01:26:38;;;;;;;12.20;7.88;;;;;;;;;;4953031;28;20035;-62
2023/06/18 01:29:03;;;;;;;;;;;;;;;;;;4956240;28;20026;-62
2023/06/18 01:31:34;;;;;;;11.07;7.60;;;;;;;;;;4948472;28;19907;-62
2023/06/18 01:33:59;;;;;;;11.98;8.10;;;;;;;;;;4951305;28;20047;-62
2023/06/18 01:36:47;;;;;;;10.63;7.47;;;;;;;;;;4949966;28;20047;-62
2023/06/18 01:39:12;;;;;;;10.60;6.97;;;;;;;;;;4940054;28;20023;-62
2023/06/18 01:41:41;;;;;;;11.60;7.40;;;;;;;;;;4940614;28;20091;-62
2023/06/18 01:44:12;;;;;;;10.18;6.90;;;;;;;;;;4942081;28;20027;-61
2023/06/18 01:46:38;;;;;;;13.75;7.63;;;;;;;;;;4942604;28;20024;-61
2023/06/18 01:49:04;;;;;;;12.45;7.50;;;;;;;;;;4936637;28;20115;-63
2023/06/18 01:51:30;;;;;;;10.40;7.32;;;;;;;;;;4937197;28;20023;-63
2023/06/18 01:53:56;;;;;;;10.95;7.75;;;;;;;;;;4935291;28;20035;-62
2023/06/18 01:56:22;;;;;;;10.65;6.90;;;;;;;;;;4939834;28;20022;-63
2023/06/18 01:58:47;;;;;;;10.48;6.85;;;;;;;;;;4936698;28;20039;-62
2023/06/18 02:01:12;;;;;;;15.15;7.03;;;;;;;;;;4935945;28;20096;-62
2023/06/18 02:03:38;;;;;;;11.05;7.15;;;;;;;;;;4935487;28;20036;-62
2023/06/18 02:06:04;;;;;;;12.13;7.43;;;;;;;;;;4936125;28;20016;-63
2023/06/18 02:08:29;;;;;;;10.32;7.07;;;;;;;;;;4938467;28;20024;-62
2023/06/18 02:10:54;;;;;;;10.97;7.33;;;;;;;;;;4934873;28;20020;-60
2023/06/18 02:13:19;;;;;;;11.20;7.70;;;;;;;;;;4938841;28;20019;-62
2023/06/18 02:15:44;;;;;;;11.97;7.40;;;;;;;;;;4941751;28;20122;-61
2023/06/18 02:18:11;;;;;;;9.85;6.78;;;;;;;;;;4935681;28;20047;-61
2023/06/18 02:20:37;;;;;;;12.05;7.68;;;;;;;;;;4937733;28;20036;-61
2023/06/18 02:23:03;;;;;;;10.68;7.60;;;;;;;;;;4940074;28;20027;-61
2023/06/18 02:25:32;;;;;;;10.63;7.35;;;;;;;;;;4945590;28;20478;-63
2023/06/18 02:28:00;;;;;;;9.75;6.68;;;;;;;;;;4940538;28;20015;-61
2023/06/18 02:30:28;;;;;;;11.55;7.45;;;;;;;;;;4942829;28;20375;-62
2023/06/18 02:32:53;;;;;;;12.57;7.57;;;;;;;;;;4940968;28;20079;-61
2023/06/18 02:35:19;;;;;;;12.88;7.43;;;;;;;;;;4940179;28;20031;-62
2023/06/18 02:37:44;;;;;;;13.47;7.50;;;;;;;;;;4934840;28;20052;-63
2023/06/18 02:40:11;;;;;;;13.45;7.93;;;;;;;;;;4935058;28;20046;-62
2023/06/18 02:42:36;;;;;;;14.18;8.55;;;;;;;;;;4939890;28;20027;-62
2023/06/18 02:45:03;;;;;;;11.80;6.93;;;;;;;;;;4949779;28;20027;-62
2023/06/18 02:47:28;;;;;;;12.55;7.90;;;;;;;;;;4954284;28;20071;-63
2023/06/18 02:49:53;;;;;;;10.83;7.30;;;;;;;;;;4954074;28;20019;-63
2023/06/18 02:52:18;;;;;;;11.87;7.70;;;;;;;;;;4954930;28;20019;-62
2023/06/18 02:54:44;;;;;;;12.32;7.35;;;;;;;;;;4955556;28;20034;-63
2023/06/18 02:57:09;;;;;;;10.63;7.22;;;;;;;;;;4944126;28;20020;-62
2023/06/18 02:59:34;;;;;;;11.47;7.43;;;;;;;;;;4952067;28;20467;-62
2023/06/18 03:02:01;;;;;;;12.57;8.20;;;;;;;;;;4955240;28;20451;-62
2023/06/18 03:04:26;;;;;;;12.10;7.47;;;;;;;;;;4954923;28;20245;-61
2023/06/18 03:06:51;;;;;;;12.63;7.87;;;;;;;;;;4951208;28;20140;-62
2023/06/18 03:09:16;;;;;;;11.60;7.47;;;;;;;;;;4953997;28;20082;-62
2023/06/18 03:11:41;;;;;;;12.55;8.05;;;;;;;;;;4953260;28;20038;-62
2023/06/18 03:14:06;;;;;;;13.95;8.50;;;;;;;;;;4952440;28;20039;-61
2023/06/18 03:16:31;;;;;;;11.02;7.18;;;;;;;;;;4952968;28;20071;-62
2023/06/18 03:18:57;;;;;;;10.30;7.27;;;;;;;;;;4953820;28;20050;-61
2023/06/18 03:21:22;;;;;;;11.77;7.60;;;;;;;;;;4953919;28;20015;-62
2023/06/18 03:23:48;;;;;;;14.55;8.07;;;;;;;;;;4949024;28;20028;-62
2023/06/18 03:26:13;;;;;;;11.57;7.78;;;;;;;;;;4953511;28;20375;-62
2023/06/18 03:28:38;;;;;;;11.57;7.78;;;;;;;;;;4942052;28;20031;-62
2023/06/18 03:31:03;;;;;;;12.57;7.45;;;;;;;;;;4948090;28;20779;-62
2023/06/18 03:33:31;;;;;;;10.48;6.80;;;;;;;;;;4946855;28;20051;-61
2023/06/18 03:35:59;;;;;;;10.43;6.45;;;;;;;;;;4951909;28;20039;-61
2023/06/18 03:38:25;;;;;;;10.85;5.93;;;;;;;;;;4953363;28;20024;-63
2023/06/18 03:40:50;;;;;;;10.20;6.27;;;;;;;;;;4950571;28;20031;-62
2023/06/18 03:43:15;;;;;;;10.93;6.53;;;;;;;;;;4936923;28;20474;-62
2023/06/18 03:45:40;;;;;;;11.55;6.90;;;;;;;;;;4942314;28;20031;-62
2023/06/18 03:48:06;;;;;;;11.45;6.32;;;;;;;;;;4939879;28;20083;-62
2023/06/18 03:50:31;;;;;;;9.75;6.13;;;;;;;;;;4955117;28;20035;-62
2023/06/18 03:52:56;;;;;;;10.40;6.70;;;;;;;;;;4944633;28;20043;-63
2023/06/18 03:55:22;;;;;;;10.35;6.25;;;;;;;;;;4934769;28;20056;-62
2023/06/18 03:57:47;;;;;;;10.27;6.40;;;;;;;;;;4936472;28;20066;-63
2023/06/18 04:00:12;;;;;;;10.23;6.75;;;;;;;;;;4937098;28;21110;-62
2023/06/18 04:02:37;;;;;;;8.93;6.13;;;;;;;;;;4933336;28;20035;-62
2023/06/18 04:05:03;;;;;;;9.90;6.30;;;;;;;;;;4934147;28;20030;-62
2023/06/18 04:07:29;;;;;;;10.45;6.20;;;;;;;;;;4942943;28;20471;-62
2023/06/18 04:09:54;;;;;;;10.00;5.77;;;;;;;;;;4942191;28;20007;-61
2023/06/18 04:12:19;;;;;;;10.15;5.63;;;;;;;;;;4938049;28;20019;-63
2023/06/18 04:14:44;;;;;;;9.17;6.00;;;;;;;;;;4943737;28;20405;-61
2023/06/18 04:17:09;;;;;;;7.77;5.20;;;;;;;;;;4952754;28;20802;-62
2023/06/18 04:19:34;;;;;;;9.32;6.03;;;;;;;;;;4949579;28;20019;-61
2023/06/18 04:22:00;;;;;;;9.18;6.20;;;;;;;;;;4952317;28;20033;-60
2023/06/18 04:24:25;;;;;;;8.30;5.40;;;;;;;;;;4950822;28;20021;-62
2023/06/18 04:26:50;;;;;;;10.63;6.07;;;;;;;;;;4953955;28;20086;-61
2023/06/18 04:29:15;;;;;;;8.00;5.80;;;;;;;;;;4942778;28;20020;-62
2023/06/18 04:31:41;;;;;;;10.60;6.30;;;;;;;;;;4951131;28;20027;-61
2023/06/18 04:34:06;;;;;;;8.33;5.40;;;;;;;;;;4939301;28;20019;-61
2023/06/18 04:36:31;;;;;;;10.13;5.90;;;;;;;;;;4938307;28;20095;-63
2023/06/18 04:38:56;;;;;;;8.43;5.20;;;;;;;;;;4946189;28;20479;-62
2023/06/18 04:41:23;;;;;;;9.35;5.50;;;;;;;;;;4944855;28;20099;-62
2023/06/18 04:43:48;;;;;;;8.60;4.97;;;;;;;;;;4943237;28;20027;-61
2023/06/18 04:46:13;;;;;;;10.10;4.70;;;;;;;;;;4934428;28;20042;-63
2023/06/18 04:48:38;;;;;;;7.07;4.70;;;;;;;;;;4937490;28;20506;-62
2023/06/18 04:51:05;;;;;;;7.75;5.00;;;;;;;;;;4942441;28;20032;-63
2023/06/18 04:53:30;;;;;;;7.68;4.97;;;;;;;;;;4946765;28;20395;-63
2023/06/18 04:55:59;;;;;;;7.68;5.18;;;;;;;;;;4949643;28;20047;-63
2023/06/18 04:58:25;;;;;;;7.50;4.90;;;;;;;;;;4944612;28;20016;-63
2023/06/18 05:00:50;;;;;;;7.57;4.70;;;;;;;;;;4943457;28;20074;-62
2023/06/18 05:03:15;;;;;;;7.97;5.00;;;;;;;;;;4946426;28;20023;-61
2023/06/18 05:05:40;;;;;;;7.50;5.10;;;;;;;;;;4951667;28;20026;-63
2023/06/18 05:08:05;;;;;;;7.18;4.78;;;;;;;;;;4945240;28;20027;-63
2023/06/18 05:10:33;;;;;;;7.57;4.82;;;;;;;;;;4948281;28;20395;-62
2023/06/18 05:12:58;;;;;;;8.60;5.30;;;;;;;;;;4948320;28;20115;-63
2023/06/18 05:15:23;;;;;;;7.10;4.85;;;;;;;;;;4949432;28;20115;-63
2023/06/18 05:17:48;;;;;;;7.72;4.60;;;;;;;;;;4949780;28;20023;-62
2023/06/18 05:20:14;;;;;;;7.25;4.50;;;;;;;;;;4951958;28;20051;-62
2023/06/18 05:22:40;;;;;;;8.88;4.80;;;;;;;;;;4950482;28;20450;-62
2023/06/18 05:25:05;;;;;;;8.20;4.53;;;;;;;;;;4951837;28;20028;-64
2023/06/18 05:27:30;;;;;;;7.07;4.53;;;;;;;;;;4949846;28;20047;-62
2023/06/18 05:29:55;;;;;;;6.47;4.38;;;;;;;;;;4938323;28;20039;-63
2023/06/18 05:32:21;;;;;;;7.93;4.57;;;;;;;;;;4932740;28;20055;-61
2023/06/18 05:34:46;;;;;;;5.93;3.97;;;;;;;;;;4932717;29;20031;-63
2023/06/18 05:37:11;;;;;;;8.17;4.30;;;;;;;;;;4935709;28;20098;-63
2023/06/18 05:39:37;;;;;;;6.50;3.70;;;;;;;;;;4935967;28;20427;-62
2023/06/18 05:42:02;;;;;;;7.03;4.10;;;;;;;;;;4932177;28;20016;-63
2023/06/18 05:44:27;;;;;;;7.15;4.30;;;;;;;;;;4932696;29;20083;-61
2023/06/18 05:46:53;;;;;;;9.50;5.00;;;;;;;;;;4935641;29;20024;-60
2023/06/18 05:49:18;;;;;;;8.98;4.75;;;;;;;;;;4941295;28;20042;-62
2023/06/18 05:51:45;;;;;;;7.13;4.80;;;;;;;;;;4939915;28;20078;-61
2023/06/18 05:54:10;;;;;;;7.55;4.43;;;;;;;;;;4935726;29;20034;-63
2023/06/18 05:56:35;;;;;;;7.97;4.70;;;;;;;;;;4936359;29;20016;-63
2023/06/18 05:59:00;;;;;;;6.45;4.32;;;;;;;;;;4936081;28;20035;-62
2023/06/18 06:01:25;;;;;;;7.13;4.22;;;;;;;;;;4943209;28;20062;-63
2023/06/18 06:03:50;;;;;;;6.97;4.43;;;;;;;;;;4948164;28;20035;-62
2023/06/18 06:06:15;;;;;;;7.88;4.55;;;;;;;;;;4938832;29;20095;-63
2023/06/18 06:08:41;;;;;;;8.05;4.50;;;;;;;;;;4939195;29;20024;-62
2023/06/18 06:11:06;;;;;;;8.50;4.60;;;;;;;;;;4937823;28;20035;-62
2023/06/18 06:13:31;;;;;;;8.15;5.15;;;;;;;;;;4939897;28;20415;-62
2023/06/18 06:15:56;;;;;;;7.57;4.23;;;;;;;;;;4936678;28;20042;-62
2023/06/18 06:18:21;;;;;;;7.07;4.38;;;;;;;;;;4937306;28;20027;-62
2023/06/18 06:20:46;;;;;;;7.00;4.40;;;;;;;;;;4934670;28;20046;-62
2023/06/18 06:23:11;;;;;;;7.50;4.23;;;;;;;;;;4935221;28;20107;-62
2023/06/18 06:25:37;;;;;;;8.20;4.22;;;;;;;;;;4939691;28;20392;-63
2023/06/18 06:28:02;;;;;;;6.65;3.90;;;;;;;;;;4939106;29;20039;-62
2023/06/18 06:30:27;;;;;;;7.18;4.63;;;;;;;;;;4937499;28;20070;-61
2023/06/18 06:32:52;;;;;;;7.37;4.40;;;;;;;;;;4941717;28;20396;-61
2023/06/18 06:35:17;;;;;;;6.97;4.30;;;;;;;;;;4936896;28;20376;-62
2023/06/18 06:37:43;;;;;;;8.13;4.75;;;;;;;;;;4939986;28;20027;-61
2023/06/18 06:40:08;;;;;;;8.63;4.57;;;;;;;;;;4951270;28;20015;-62
2023/06/18 06:42:33;;;;;;;7.70;4.90;;;;;;;;;;4935676;29;20462;-63
2023/06/18 06:45:00;;;;;;;8.73;4.20;;;;;;;;;;4944023;28;20031;-62
2023/06/18 06:47:25;;;;;;;6.38;4.57;;;;;;;;;;4943711;28;20039;-61
2023/06/18 06:49:50;;;;;;;8.10;4.45;;;;;;;;;;4942684;28;20015;-62
2023/06/18 06:52:15;;;;;;;6.80;4.65;;;;;;;;;;4940986;29;20032;-62
2023/06/18 06:54:40;;;;;;;6.50;4.57;;;;;;;;;;4944630;29;20549;-62
2023/06/18 06:57:06;;;;;;;7.45;4.93;;;;;;;;;;4943882;28;20028;-63
2023/06/18 06:59:31;;;;;;;7.15;4.32;;;;;;;;;;4932965;28;20530;-62
2023/06/18 07:01:56;;;;;;;7.13;4.40;;;;;;;;;;4937407;28;20483;-63
2023/06/18 07:04:22;;;;;;;6.70;4.15;;;;;;;;;;4942254;28;20055;-62
2023/06/18 07:06:47;;;;;;;7.82;4.72;;;;;;;;;;4938483;29;20024;-63
2023/06/18 07:09:12;;;;;;;8.45;4.45;;;;;;;;;;4938075;29;20023;-62
2023/06/18 07:11:40;;;;;;;6.83;4.73;;;;;;;;;;4937253;28;20094;-63
2023/06/18 07:14:05;;;;;;;6.43;4.07;;;;;;;;;;4938969;28;20027;-63
2023/06/18 07:16:30;;;;;;;6.40;4.30;;;;;;;;;;4949239;28;20699;-62
2023/06/18 07:18:55;;;;;;;6.97;3.88;;;;;;;;;;4939292;29;20114;-63
2023/06/18 07:21:21;;;;;;;7.68;4.55;;;;;;;;;;4934225;28;20420;-62
2023/06/18 07:23:46;;;;;;;6.60;4.38;;;;;;;;;;4939055;28;20066;-62
2023/06/18 07:26:11;;;;;;;6.90;4.10;;;;;;;;;;4941772;28;20026;-61
2023/06/18 07:28:36;;;;;;;5.93;3.92;;;;;;;;;;4938632;29;20024;-63
2023/06/18 07:31:02;;;;;;;6.73;4.00;;;;;;;;;;4939467;28;20023;-61
2023/06/18 07:33:27;;;;;;;7.25;4.25;;;;;;;;;;4941711;28;20019;-62
2023/06/18 07:35:52;;;;;;;7.43;4.20;;;;;;;;;;4939421;28;20479;-62
2023/06/18 07:38:17;;;;;;;6.28;4.40;;;;;;;;;;4950832;28;20026;-61
2023/06/18 07:40:42;;;;;;;7.93;4.10;;;;;;;;;;4946192;28;20186;-63
2023/06/18 07:43:09;;;;;;;6.27;3.87;;;;;;;;;;4945307;28;20019;-62
2023/06/18 07:45:34;;;;;;;7.50;4.68;;;;;;;;;;4944821;29;20062;-63
2023/06/18 07:47:59;;;;;;;7.60;4.80;;;;;;;;;;4944234;28;20083;-62
2023/06/18 07:50:25;;;;;;;6.03;4.37;;;;;;;;;;4951106;28;20020;-62
2023/06/18 07:52:50;;;;;;;6.40;3.90;;;;;;;;;;4941006;28;20027;-62
2023/06/18 07:55:15;;;;;;;6.55;3.83;;;;;;;;;;4943823;29;20101;-61
2023/06/18 07:57:40;;;;;;;7.40;4.35;;;;;;;;;;4944847;28;20091;-62
2023/06/18 08:00:06;;;;;;;7.75;4.15;;;;;;;;;;4943745;28;20295;-61
2023/06/18 08:02:32;;;;;;;7.57;4.35;;;;;;;;;;4944297;28;20488;-61
2023/06/18 08:04:57;;;;;;;6.00;4.05;;;;;;;;;;4942447;29;20107;-61
2023/06/18 08:07:22;;;;;;;7.43;4.00;;;;;;;;;;4944790;28;20106;-60
2023/06/18 08:09:48;;;;;;;5.93;4.10;;;;;;;;;;4937818;28;20036;-61
2023/06/18 08:12:13;;;;;;;6.38;4.30;;;;;;;;;;4941976;28;20391;-60
2023/06/18 08:14:38;;;;;;;6.93;4.28;;;;;;;;;;4944576;28;20071;-61
2023/06/18 08:17:03;;;;;;;7.37;4.33;;;;;;;;;;4942422;28;20080;-62
2023/06/18 08:19:28;;;;;;;6.70;4.40;;;;;;;;;;4944124;29;20026;-61
2023/06/18 08:21:54;;;;;;;6.37;4.13;;;;;;;;;;4944648;28;20023;-61
2023/06/18 08:24:19;;;;;;;8.53;4.27;;;;;;;;;;4940641;28;20439;-62
2023/06/18 08:26:44;;;;;;;7.13;4.00;;;;;;;;;;4942360;28;20038;-63
2023/06/18 08:29:09;;;;;;;6.63;4.47;;;;;;;;;;4948740;28;20027;-62
2023/06/18 08:31:35;;;;;;;6.63;4.30;;;;;;;;;;4947426;28;20019;-62
2023/06/18 08:34:00;;;;;;;7.72;4.38;;;;;;;;;;4947036;28;20031;-62
2023/06/18 08:36:25;;;;;;;6.80;4.40;;;;;;;;;;4939519;28;20218;-62
2023/06/18 08:38:50;;;;;;;7.03;4.38;;;;;;;;;;4941765;28;20050;-62
2023/06/18 08:41:16;;;;;;;6.75;4.20;;;;;;;;;;4939603;28;20391;-62
2023/06/18 08:43:41;;;;;;;6.97;4.47;;;;;;;;;;4940091;29;20059;-61
2023/06/18 08:46:10;;;;;;;7.50;4.77;;;;;;;;;;4949870;28;20019;-62
2023/06/18 08:48:41;;;;;;;9.80;4.57;;;;;;;;;;4952832;28;20015;-62
2023/06/18 08:51:08;;;;;;;7.20;4.70;;;;;;;;;;4952344;29;20022;-62
2023/06/18 08:53:45;;;;;;;6.60;4.43;;;;;;;;;;4947186;29;20051;-63
2023/06/18 08:56:13;;;;;;;7.10;4.55;;;;;;;;;;4955175;28;20307;-63
2023/06/18 08:58:41;;;;;;;7.60;4.35;;;;;;;;;;4964209;28;20085;-62
2023/06/18 09:01:06;;;;;;;6.20;4.05;;;;;;;;;;4953930;28;20020;-62
2023/06/18 09:03:32;;;;;;;6.13;4.10;;;;;;;;;;4944395;28;20050;-61
2023/06/18 09:05:58;;;;;;;8.88;5.00;;;;;;;;;;4950446;28;20019;-62
2023/06/18 09:08:23;;;;;;;6.10;4.18;;;;;;;;;;4955893;28;20016;-62
2023/06/18 09:10:48;;;;;;;7.72;4.57;;;;;;;;;;4950632;29;20026;-62
2023/06/18 09:13:14;;;;;;;8.13;5.20;;;;;;;;;;4958507;28;20022;-61
2023/06/18 09:15:39;;;;;;;7.07;5.03;;;;;;;;;;4953360;28;20475;-63
2023/06/18 09:18:05;;;;;;;8.07;5.03;;;;;;;;;;4947735;28;20031;-63
2023/06/18 09:20:32;;;;;;;9.35;5.03;;;;;;;;;;4951241;28;20046;-62
2023/06/18 09:22:57;;;;;;;8.32;4.70;;;;;;;;;;4943733;29;20059;-62
2023/06/18 09:25:22;;;;;;;6.75;4.53;;;;;;;;;;4942017;28;20046;-63
2023/06/18 09:27:47;;;;;;;7.25;5.20;;;;;;;;;;4942209;28;20399;-61
2023/06/18 09:30:19;;;;;;;7.37;4.70;;;;;;;;;;4940019;29;20020;-63
2023/06/18 09:32:46;;;;;;;7.40;5.30;;;;;;;;;;4941237;29;20028;-63
2023/06/18 09:35:13;;;;;;;7.10;5.10;;;;;;;;;;4949870;28;20031;-62
2023/06/18 09:37:38;;;;;;;7.40;4.82;;;;;;;;;;4948743;28;20024;-61
2023/06/18 09:40:07;;;;;;;7.43;5.13;;;;;;;;;;4945531;29;20023;-61
2023/06/18 09:42:32;;;;;;;8.52;4.90;;;;;;;;;;4942647;28;20438;-61
2023/06/18 09:44:57;;;;;;;6.63;4.82;;;;;;;;;;4950832;28;20110;-62
2023/06/18 09:47:23;;;;;;;6.73;5.17;;;;;;;;;;4956222;28;20046;-62
2023/06/18 09:49:48;;;;;;;;;;;;;;;;;;4945817;28;20172;-62
2023/06/18 09:52:13;;;;;;;9.30;5.45;;;;;;;;;;4942264;29;19911;-62
2023/06/18 09:54:38;;;;;;;;;;;;;;;;;;4942408;28;20031;-62
2023/06/18 09:57:04;;;;;;;8.23;5.13;;;;;;;;;;4941446;28;20365;-62
2023/06/18 09:59:29;;;;;;;7.90;5.32;;;;;;;;;;4944610;29;20086;-62
2023/06/18 10:01:55;;;;;;;7.07;4.88;;;;;;;;;;4943382;29;20079;-62
2023/06/18 10:04:20;;;;;;;;;;;;;;;;;;4942558;28;20024;-62
2023/06/18 10:07:05;;;;;;;11.18;5.57;;;;;;;;;;4944070;28;19918;-62
2023/06/18 10:09:40;;;;;;;7.78;5.00;;;;;;;;;;4943057;29;20606;-62
2023/06/18 10:12:06;;;;;;;15.80;6.18;;;;;;;;;;4935836;28;20512;-62
2023/06/18 10:14:31;;;;;;;8.00;5.32;;;;;;;;;;4949710;29;20019;-62
2023/06/18 10:16:59;;;;;;;7.68;4.80;;;;;;;;;;4942809;28;20110;-62
2023/06/18 10:19:31;;;;;;;9.00;5.43;;;;;;;;;;4953303;28;20100;-61
2023/06/18 10:22:00;;;;;;;7.32;4.80;;;;;;;;;;4948073;28;20106;-63
2023/06/18 10:24:34;;;;;;;7.03;4.78;;;;;;;;;;4952347;28;20410;-62
2023/06/18 10:27:00;;;;;;;8.68;5.07;;;;;;;;;;4952228;28;20082;-62
2023/06/18 10:29:25;;;;;;;7.10;5.22;;;;;;;;;;4949019;28;20479;-61
2023/06/18 10:31:50;;;;;;;7.55;5.25;;;;;;;;;;4952910;28;20055;-61
2023/06/18 10:34:15;;;;;;;;;;;;;;;;;;4953533;28;20757;-63
2023/06/18 10:36:41;;;;;;;7.95;5.03;;;;;;;;;;4944270;28;20038;-62
2023/06/18 10:39:06;;;;;;;;;;;;;;;;;;4938210;28;20040;-63
2023/06/18 10:41:31;;;;;;;10.07;5.10;;;;;;;;;;4950072;29;19933;-61
2023/06/18 10:43:56;;;;;;;7.53;4.90;;;;;;;;;;4950004;28;20313;-63
2023/06/18 10:46:22;;;;;;;7.40;4.47;;;;;;;;;;4942357;28;20431;-63
2023/06/18 10:48:47;;;;;;;;;;;;;;;;;;4943097;28;20028;-62
2023/06/18 10:51:13;;;;;;;7.65;5.32;;;;;;;;;;4946463;28;19921;-62
2023/06/18 10:53:38;;;;;;;7.90;4.63;;;;;;;;;;4950674;28;20406;-62
2023/06/18 10:56:04;;;;;;;7.67;5.17;;;;;;;;;;4947207;29;20042;-62
2023/06/18 10:58:33;;;;;;;8.93;4.97;;;;;;;;;;4954369;28;20045;-61
2023/06/18 11:00:58;;;;;;;7.55;5.25;;;;;;;;;;4943122;28;20023;-62
2023/06/18 11:03:31;;;;;;;8.77;4.90;;;;;;;;;;4949376;28;20027;-61
2023/06/18 11:06:00;;;;;;;8.68;5.07;;;;;;;;;;4948041;28;20407;-62
2023/06/18 11:08:27;;;;;;;9.38;5.65;;;;;;;;;;4943209;29;20031;-61
2023/06/18 11:11:00;;;;;;;7.95;5.18;;;;;;;;;;4952246;28;20106;-61
2023/06/18 11:13:28;;;;;;;7.47;5.05;;;;;;;;;;4940300;28;20012;-61
2023/06/18 11:16:00;;;;;;;8.23;4.72;;;;;;;;;;4935384;28;20031;-61
2023/06/18 11:18:26;;;;;;;7.80;4.93;;;;;;;;;;4935586;28;20775;-61
2023/06/18 11:20:52;;;;;;;7.78;4.82;;;;;;;;;;4945805;28;20027;-62
2023/06/18 11:23:18;;;;;;;;;;;;;;;;;;4936723;29;20070;-63
2023/06/18 11:25:43;;;;;;;7.47;5.07;;;;;;;;;;4939959;29;19911;-63
2023/06/18 11:28:08;;;;;;;;;;;;;;;;;;4936366;28;20030;-65
2023/06/18 11:30:36;;;;;;;7.40;5.10;;;;;;;;;;4957689;28;20330;-62
2023/06/18 11:33:01;;;;;;;7.25;5.20;;;;;;;;;;4938991;28;20084;-62
2023/06/18 11:35:26;;;;;;;;;;;;;;;;;;4954620;28;20158;-63
2023/06/18 11:37:53;;;;;;;8.73;5.40;;;;;;;;;;4948176;28;20023;-63
2023/06/18 11:40:18;;;;;;;7.85;4.57;;;;;;;;;;4951481;28;20031;-63
2023/06/18 11:42:48;;;;;;;8.55;5.15;;;;;;;;;;4948481;28;21644;-62
2023/06/18 11:45:13;;;;;;;9.02;5.38;;;;;;;;;;4942684;29;20029;-62
2023/06/18 11:47:38;;;;;;;;;;;;;;;;;;4937549;28;20028;-61
2023/06/18 11:50:04;;;;;;;8.18;5.18;;;;;;;;;;4934494;28;19906;-61
2023/06/18 11:52:30;;;;;;;;;;;;;;;;;;4941573;28;20027;-63
2023/06/18 11:55:02;;;;;;;7.68;4.68;;;;;;;;;;4936894;28;20009;-62
2023/06/18 11:57:27;;;;;;;7.82;4.72;;;;;;;;;;4941541;28;20047;-63
2023/06/18 11:59:52;;;;;;;;;;;;;;;;;;4937712;28;20481;-63
2023/06/18 12:02:18;;;;;;;7.97;4.63;;;;;;;;;;4936696;28;19954;-63
2023/06/18 12:04:44;;;;;;;9.40;4.88;;;;;;;;;;4941387;28;20026;-62
2023/06/18 12:07:09;;;;;;;;;;;;;;;;;;4935027;28;20012;-62
2023/06/18 12:09:36;;;;;;;7.60;5.20;;;;;;;;;;4934549;28;19911;-63
2023/06/18 12:12:12;;;;;;;8.65;5.20;;;;;;;;;;4944657;28;20023;-63
2023/06/18 12:14:37;;;;;;;8.20;5.00;;;;;;;;;;4948832;28;20066;-63
2023/06/18 12:17:06;;;;;;;6.82;4.95;;;;;;;;;;4950257;28;20023;-62
2023/06/18 12:19:32;;;;;;;8.18;5.80;;;;;;;;;;4952847;28;20019;-62
2023/06/18 12:21:59;;;;;;;7.25;4.95;;;;;;;;;;4934664;28;20027;-61
2023/06/18 12:24:26;;;;;;;7.95;5.40;;;;;;;;;;4936473;28;20102;-62
2023/06/18 12:26:51;;;;;;;7.97;5.00;;;;;;;;;;4932925;28;20030;-62
2023/06/18 12:29:18;;;;;;;;;;;;;;;;;;4938726;28;20019;-61
2023/06/18 12:31:43;;;;;;;6.70;4.57;;;;;;;;;;4935052;28;19911;-62
2023/06/18 12:34:08;;;;;;;;;;;;;;;;;;4934650;28;20542;-61
2023/06/18 12:36:34;;;;;;;7.32;4.90;;;;;;;;;;4940043;28;20009;-61
2023/06/18 12:38:59;;;;;;;6.72;5.03;;;;;;;;;;4933581;28;20038;-61
2023/06/18 12:41:25;;;;;;;;;;;;;;;;;;4935921;28;20472;-63
2023/06/18 12:43:52;;;;;;;9.15;4.93;;;;;;;;;;4932459;28;19907;-61
2023/06/18 12:46:24;;;;;;;7.70;5.03;;;;;;;;;;4935777;28;20038;-61
2023/06/18 12:48:50;;;;;;;7.80;4.82;;;;;;;;;;4933081;28;20031;-61
2023/06/18 12:51:15;;;;;;;;;;;;;;;;;;4942445;28;20034;-61
2023/06/18 12:53:41;;;;;;;8.20;4.95;;;;;;;;;;4934958;28;19911;-62
2023/06/18 12:56:17;;;;;;;8.48;5.30;;;;;;;;;;4933110;28;20049;-61
2023/06/18 12:58:42;;;;;;;8.15;5.63;;;;;;;;;;4948254;28;20027;-62
2023/06/18 13:01:08;;;;;;;;;;;;;;;;;;4935953;28;20031;-62
2023/06/18 13:03:33;;;;;;;6.63;5.00;;;;;;;;;;4938011;28;20283;-62
2023/06/18 13:05:58;;;;;;;6.83;4.67;;;;;;;;;;4931795;28;20139;-62
2023/06/18 13:08:23;;;;;;;;;;;;;;;;;;4934077;28;20032;-61
2023/06/18 13:10:49;;;;;;;8.05;4.88;;;;;;;;;;4933518;28;19997;-62
2023/06/18 13:13:16;;;;;;;7.93;4.90;;;;;;;;;;4934467;29;20031;-62
2023/06/18 13:15:42;;;;;;;7.40;5.00;;;;;;;;;;4944301;28;20070;-62
2023/06/18 13:18:07;;;;;;;;;;;;;;;;;;4944402;28;20059;-62
2023/06/18 13:20:33;;;;;;;6.80;4.90;;;;;;;;;;4941328;28;20366;-62
2023/06/18 13:22:58;;;;;;;;;;;;;;;;;;4938285;28;20392;-62
2023/06/18 13:25:23;;;;;;;8.35;4.80;;;;;;;;;;4933174;29;20018;-62
2023/06/18 13:27:49;;;;;;;;;;;;;;;;;;4939500;29;20102;-62
2023/06/18 13:30:15;;;;;;;7.78;5.05;;;;;;;;;;4936163;28;19918;-62
2023/06/18 13:32:40;;;;;;;7.57;4.75;;;;;;;;;;4942556;28;20055;-62
2023/06/18 13:35:05;;;;;;;;;;;;;;;;;;4945171;28;20071;-62
2023/06/18 13:37:30;;;;;;;6.50;4.03;;;;;;;;;;4927610;29;20407;-62
2023/06/18 13:39:56;;;;;;;6.78;4.35;;;;;;;;;;4940631;28;20019;-61
2023/06/18 13:42:21;;;;;;;;;;;;;;;;;;4937015;28;20027;-62
2023/06/18 13:44:46;;;;;;;6.63;4.07;;;;;;;;;;4932687;28;20001;-62
2023/06/18 13:47:11;;;;;;;;;;;;;;;;;;4930059;29;20031;-62
2023/06/18 13:49:37;;;;;;;7.30;4.18;;;;;;;;;;4938799;29;20230;-62
2023/06/18 13:52:04;;;;;;;;;;;;;;;;;;4935905;28;20023;-62
2023/06/18 13:54:29;;;;;;;6.20;4.32;;;;;;;;;;4944636;28;19914;-62
2023/06/18 13:56:54;;;;;;;;;;;;;;;;;;4935237;28;20363;-63
2023/06/18 13:59:20;;;;;;;6.00;4.13;;;;;;;;;;4950095;28;20665;-61
2023/06/18 14:01:45;;;;;;;;;;;;;;;;;;4947348;28;20024;-62
2023/06/18 14:04:10;;;;;;;6.22;4.22;;;;;;;;;;4935522;29;19915;-62
2023/06/18 14:06:35;;;;;;;;;;;;;;;;;;4932139;29;20020;-62
2023/06/18 14:09:01;;;;;;;9.25;4.43;;;;;;;;;;4936681;28;19910;-61
2023/06/18 14:11:27;;;;;;;;;;;;;;;;;;4936667;28;20059;-61
2023/06/18 14:13:52;;;;;;;6.32;4.35;;;;;;;;;;4949361;29;19906;-61
2023/06/18 14:16:19;;;;;;;;;;;;;;;;;;4947893;28;20040;-62
2023/06/18 14:18:44;;;;;;;7.43;4.68;;;;;;;;;;4948650;29;19914;-61
2023/06/18 14:21:09;;;;;;;;;;;;;;;;;;4943448;28;20073;-61
2023/06/18 14:23:34;;;;;;;7.75;4.45;;;;;;;;;;4944863;29;19961;-61
2023/06/18 14:25:59;;;;;;;;;;;;;;;;;;4950220;28;20027;-61
2023/06/18 14:28:24;;;;;;;6.15;4.38;;;;;;;;;;4932618;29;19922;-62
2023/06/18 14:30:49;;;;;;;7.05;4.38;;;;;;;;;;4940392;28;20039;-61
2023/06/18 14:33:14;;;;;;;;;;;;;;;;;;4936497;28;20940;-63
2023/06/18 14:35:40;;;;;;;6.57;4.10;;;;;;;;;;4933902;28;19929;-62
2023/06/18 14:38:05;;;;;;;;;;;;;;;;;;4945248;28;21599;-62
2023/06/18 14:40:30;;;;;;;6.88;4.43;;;;;;;;;;4944751;28;19910;-60
2023/06/18 14:42:55;;;;;;;;;;;;;;;;;;4947586;28;20024;-61